sensor_id;sensor_type;location;lat;lon;timestamp;temperature;humidity
7194;DHT22;3638;48.820;9.244;2022-11-15T00:00:55;9.70;99.90
7194;DHT22;3638;48.820;9.244;2022-11-15T00:03:24;9.70;99.90
7194;DHT22;3638;48.820;9.244;2022-11-15T00:05:53;9.70;99.90
7194;DHT22;3638;48.820;9.244;2022-11-15T00:08:20;9.70;99.90
7194;DHT22;3638;48.820;9.244;2022-11-15T00:10:54;9.70;99.90
7194;DHT22;3638;48.820;9.244;2022-11-15T00:13:21;9.70;99.90
7194;DHT22;3638;48.820;9.244;2022-11-15T00:15:48;9.70;99.90
7194;DHT22;3638;48.820;9.244;2022-11-15T00:18:16;9.70;99.90
7194;DHT22;3638;48.820;9.244;2022-11-15T00:20:43;9.70;99.90
7194;DHT22;3638;48.820;9.244;2022-11-15T00:23:12;9.70;99.90
7194;DHT22;3638;48.820;9.244;2022-11-15T00:25:39;9.70;99.90
7194;DHT22;3638;48.820;9.244;2022-11-15T00:28:06;9.70;99.90
7194;DHT22;3638;48.820;9.244;2022-11-15T00:30:33;9.80;99.90
7194;DHT22;3638;48.820;9.244;2022-11-15T00:33:02;9.80;99.90
7194;DHT22;3638;48.820;9.244;2022-11-15T00:35:31;9.80;99.90
7194;DHT22;3638;48.820;9.244;2022-11-15T00:37:59;9.80;99.90
7194;DHT22;3638;48.820;9.244;2022-11-15T00:40:27;9.80;99.90
7194;DHT22;3638;48.820;9.244;2022-11-15T00:42:54;9.80;99.90
7194;DHT22;3638;48.820;9.244;2022-11-15T00:45:21;9.90;99.90
7194;DHT22;3638;48.820;9.244;2022-11-15T00:47:48;9.80;99.90
7194;DHT22;3638;48.820;9.244;2022-11-15T00:50:15;9.80;99.90
7194;DHT22;3638;48.820;9.244;2022-11-15T00:52:43;9.80;99.90
7194;DHT22;3638;48.820;9.244;2022-11-15T00:55:13;9.80;99.90
7194;DHT22;3638;48.820;9.244;2022-11-15T00:57:42;9.80;99.90
7194;DHT22;3638;48.820;9.244;2022-11-15T01:00:10;9.80;99.90
7194;DHT22;3638;48.820;9.244;2022-11-15T01:02:38;9.80;99.90
7194;DHT22;3638;48.820;9.244;2022-11-15T01:05:06;9.80;99.90
7194;DHT22;3638;48.820;9.244;2022-11-15T01:07:34;9.80;99.90
7194;DHT22;3638;48.820;9.244;2022-11-15T01:10:01;9.80;99.90
7194;DHT22;3638;48.820;9.244;2022-11-15T01:12:28;9.70;99.90
7194;DHT22;3638;48.820;9.244;2022-11-15T01:14:56;9.60;99.90
7194;DHT22;3638;48.820;9.244;2022-11-15T01:17:23;9.60;99.90
7194;DHT22;3638;48.820;9.244;2022-11-15T01:19:50;9.60;99.90
7194;DHT22;3638;48.820;9.244;2022-11-15T01:22:17;9.60;99.90
7194;DHT22;3638;48.820;9.244;2022-11-15T01:24:44;9.50;99.90
7194;DHT22;3638;48.820;9.244;2022-11-15T01:27:11;9.50;99.90
7194;DHT22;3638;48.820;9.244;2022-11-15T01:29:38;9.50;99.90
7194;DHT22;3638;48.820;9.244;2022-11-15T01:32:06;9.40;99.90
7194;DHT22;3638;48.820;9.244;2022-11-15T01:34:33;9.30;99.90
7194;DHT22;3638;48.820;9.244;2022-11-15T01:37:00;9.30;99.90
7194;DHT22;3638;48.820;9.244;2022-11-15T01:39:27;9.20;99.90
7194;DHT22;3638;48.820;9.244;2022-11-15T01:41:54;9.20;99.90
7194;DHT22;3638;48.820;9.244;2022-11-15T01:44:41;9.10;99.90
7194;DHT22;3638;48.820;9.244;2022-11-15T01:47:12;9.00;99.90
7194;DHT22;3638;48.820;9.244;2022-11-15T01:49:52;8.90;99.90
7194;DHT22;3638;48.820;9.244;2022-11-15T01:52:25;8.80;99.90
7194;DHT22;3638;48.820;9.244;2022-11-15T01:54:58;8.80;99.90
7194;DHT22;3638;48.820;9.244;2022-11-15T01:57:29;8.80;99.90
7194;DHT22;3638;48.820;9.244;2022-11-15T01:59:57;8.70;99.90
7194;DHT22;3638;48.820;9.244;2022-11-15T02:02:27;8.60;99.90
7194;DHT22;3638;48.820;9.244;2022-11-15T02:04:54;8.60;99.90
7194;DHT22;3638;48.820;9.244;2022-11-15T02:07:22;8.50;99.90
7194;DHT22;3638;48.820;9.244;2022-11-15T02:09:49;8.50;99.90
7194;DHT22;3638;48.820;9.244;2022-11-15T02:12:19;8.50;99.90
7194;DHT22;3638;48.820;9.244;2022-11-15T02:14:49;8.40;99.90
7194;DHT22;3638;48.820;9.244;2022-11-15T02:17:44;8.50;99.90
7194;DHT22;3638;48.820;9.244;2022-11-15T02:20:40;8.50;99.90
7194;DHT22;3638;48.820;9.244;2022-11-15T02:23:29;8.50;99.90
7194;DHT22;3638;48.820;9.244;2022-11-15T02:29:03;8.50;99.90
7194;DHT22;3638;48.820;9.244;2022-11-15T02:31:37;8.70;99.90
7194;DHT22;3638;48.820;9.244;2022-11-15T02:34:15;8.70;99.90
7194;DHT22;3638;48.820;9.244;2022-11-15T02:36:53;8.70;99.90
7194;DHT22;3638;48.820;9.244;2022-11-15T02:39:28;8.70;99.90
7194;DHT22;3638;48.820;9.244;2022-11-15T02:42:02;8.70;99.90
7194;DHT22;3638;48.820;9.244;2022-11-15T02:45:11;9.10;99.90
7194;DHT22;3638;48.820;9.244;2022-11-15T02:47:44;9.70;99.90
7194;DHT22;3638;48.820;9.244;2022-11-15T02:50:15;8.80;99.90
7194;DHT22;3638;48.820;9.244;2022-11-15T02:52:45;8.80;99.90
7194;DHT22;3638;48.820;9.244;2022-11-15T02:55:32;8.70;99.90
7194;DHT22;3638;48.820;9.244;2022-11-15T02:58:14;8.60;99.90
7194;DHT22;3638;48.820;9.244;2022-11-15T03:00:52;8.60;99.90
7194;DHT22;3638;48.820;9.244;2022-11-15T03:03:42;8.60;99.90
7194;DHT22;3638;48.820;9.244;2022-11-15T03:06:22;8.60;99.90
7194;DHT22;3638;48.820;9.244;2022-11-15T03:08:59;8.70;99.90
7194;DHT22;3638;48.820;9.244;2022-11-15T03:11:32;8.70;99.90
7194;DHT22;3638;48.820;9.244;2022-11-15T03:14:07;8.70;99.90
7194;DHT22;3638;48.820;9.244;2022-11-15T03:16:43;8.70;99.90
7194;DHT22;3638;48.820;9.244;2022-11-15T03:19:20;8.70;99.90
7194;DHT22;3638;48.820;9.244;2022-11-15T03:21:50;8.80;99.90
7194;DHT22;3638;48.820;9.244;2022-11-15T03:24:20;8.70;99.90
7194;DHT22;3638;48.820;9.244;2022-11-15T03:26:48;8.60;99.90
7194;DHT22;3638;48.820;9.244;2022-11-15T03:29:19;8.60;99.90
7194;DHT22;3638;48.820;9.244;2022-11-15T03:31:52;8.50;99.90
7194;DHT22;3638;48.820;9.244;2022-11-15T03:34:28;8.50;99.90
7194;DHT22;3638;48.820;9.244;2022-11-15T03:36:56;8.40;99.90
7194;DHT22;3638;48.820;9.244;2022-11-15T03:39:24;8.30;99.90
7194;DHT22;3638;48.820;9.244;2022-11-15T03:41:59;8.10;99.90
7194;DHT22;3638;48.820;9.244;2022-11-15T03:44:39;8.00;99.90
7194;DHT22;3638;48.820;9.244;2022-11-15T03:47:11;8.10;99.90
7194;DHT22;3638;48.820;9.244;2022-11-15T03:49:45;8.10;99.90
7194;DHT22;3638;48.820;9.244;2022-11-15T03:52:17;8.00;99.90
7194;DHT22;3638;48.820;9.244;2022-11-15T03:54:52;8.10;99.90
7194;DHT22;3638;48.820;9.244;2022-11-15T03:57:20;7.90;99.90
7194;DHT22;3638;48.820;9.244;2022-11-15T03:59:47;8.00;99.90
7194;DHT22;3638;48.820;9.244;2022-11-15T04:02:15;8.00;99.90
7194;DHT22;3638;48.820;9.244;2022-11-15T04:04:44;8.00;99.90
7194;DHT22;3638;48.820;9.244;2022-11-15T04:07:11;8.00;99.90
7194;DHT22;3638;48.820;9.244;2022-11-15T04:09:38;7.90;99.90
7194;DHT22;3638;48.820;9.244;2022-11-15T04:12:25;8.00;99.90
7194;DHT22;3638;48.820;9.244;2022-11-15T04:14:58;8.10;99.90
7194;DHT22;3638;48.820;9.244;2022-11-15T04:17:35;8.10;99.90
7194;DHT22;3638;48.820;9.244;2022-11-15T04:20:07;8.10;99.90
7194;DHT22;3638;48.820;9.244;2022-11-15T04:22:54;8.10;99.90
7194;DHT22;3638;48.820;9.244;2022-11-15T04:25:39;8.10;99.90
7194;DHT22;3638;48.820;9.244;2022-11-15T04:28:06;8.10;99.90
7194;DHT22;3638;48.820;9.244;2022-11-15T04:30:33;8.10;99.90
7194;DHT22;3638;48.820;9.244;2022-11-15T04:33:00;8.10;99.90
7194;DHT22;3638;48.820;9.244;2022-11-15T04:35:28;8.10;99.90
7194;DHT22;3638;48.820;9.244;2022-11-15T04:37:56;8.00;99.90
7194;DHT22;3638;48.820;9.244;2022-11-15T04:40:23;8.00;99.90
7194;DHT22;3638;48.820;9.244;2022-11-15T04:42:50;10.00;99.90
7194;DHT22;3638;48.820;9.244;2022-11-15T04:45:17;7.90;99.90
7194;DHT22;3638;48.820;9.244;2022-11-15T04:47:44;7.90;99.90
7194;DHT22;3638;48.820;9.244;2022-11-15T04:50:12;7.90;99.90
7194;DHT22;3638;48.820;9.244;2022-11-15T04:52:42;7.90;99.90
7194;DHT22;3638;48.820;9.244;2022-11-15T04:55:10;7.80;99.90
7194;DHT22;3638;48.820;9.244;2022-11-15T04:57:37;7.90;99.90
7194;DHT22;3638;48.820;9.244;2022-11-15T05:00:06;7.90;99.90
7194;DHT22;3638;48.820;9.244;2022-11-15T05:02:35;7.90;99.90
7194;DHT22;3638;48.820;9.244;2022-11-15T05:05:19;7.80;99.90
7194;DHT22;3638;48.820;9.244;2022-11-15T05:07:47;7.80;99.90
7194;DHT22;3638;48.820;9.244;2022-11-15T05:10:14;7.80;99.90
7194;DHT22;3638;48.820;9.244;2022-11-15T05:12:41;7.70;99.90
7194;DHT22;3638;48.820;9.244;2022-11-15T05:15:09;7.70;99.90
7194;DHT22;3638;48.820;9.244;2022-11-15T05:17:36;7.70;99.90
7194;DHT22;3638;48.820;9.244;2022-11-15T05:20:04;7.70;99.90
7194;DHT22;3638;48.820;9.244;2022-11-15T05:22:31;7.80;99.90
7194;DHT22;3638;48.820;9.244;2022-11-15T05:24:59;7.80;99.90
7194;DHT22;3638;48.820;9.244;2022-11-15T05:27:26;7.80;99.90
7194;DHT22;3638;48.820;9.244;2022-11-15T05:29:53;7.90;99.90
7194;DHT22;3638;48.820;9.244;2022-11-15T05:32:20;7.80;99.90
7194;DHT22;3638;48.820;9.244;2022-11-15T05:34:47;7.80;99.90
7194;DHT22;3638;48.820;9.244;2022-11-15T05:37:14;7.70;99.90
7194;DHT22;3638;48.820;9.244;2022-11-15T05:39:42;7.70;99.90
7194;DHT22;3638;48.820;9.244;2022-11-15T05:42:11;7.60;99.90
7194;DHT22;3638;48.820;9.244;2022-11-15T05:44:41;7.70;99.90
7194;DHT22;3638;48.820;9.244;2022-11-15T05:47:15;7.70;99.90
7194;DHT22;3638;48.820;9.244;2022-11-15T05:49:44;7.70;99.90
7194;DHT22;3638;48.820;9.244;2022-11-15T05:52:15;7.70;99.90
7194;DHT22;3638;48.820;9.244;2022-11-15T05:54:44;7.80;99.90
7194;DHT22;3638;48.820;9.244;2022-11-15T05:57:13;7.90;99.90
7194;DHT22;3638;48.820;9.244;2022-11-15T05:59:40;7.90;99.90
7194;DHT22;3638;48.820;9.244;2022-11-15T06:02:08;7.80;99.90
7194;DHT22;3638;48.820;9.244;2022-11-15T06:04:36;7.80;99.90
7194;DHT22;3638;48.820;9.244;2022-11-15T06:07:03;7.80;99.90
7194;DHT22;3638;48.820;9.244;2022-11-15T06:09:29;7.80;99.90
7194;DHT22;3638;48.820;9.244;2022-11-15T06:11:56;7.80;99.90
7194;DHT22;3638;48.820;9.244;2022-11-15T06:14:24;7.80;99.90
7194;DHT22;3638;48.820;9.244;2022-11-15T06:16:51;7.90;99.90
7194;DHT22;3638;48.820;9.244;2022-11-15T06:19:18;7.90;99.90
7194;DHT22;3638;48.820;9.244;2022-11-15T06:21:45;7.80;99.90
7194;DHT22;3638;48.820;9.244;2022-11-15T06:24:12;7.90;99.90
7194;DHT22;3638;48.820;9.244;2022-11-15T06:26:39;7.80;99.90
7194;DHT22;3638;48.820;9.244;2022-11-15T06:29:06;7.90;99.90
7194;DHT22;3638;48.820;9.244;2022-11-15T06:31:34;7.90;99.90
7194;DHT22;3638;48.820;9.244;2022-11-15T06:34:01;7.80;99.90
7194;DHT22;3638;48.820;9.244;2022-11-15T06:36:28;7.70;99.90
7194;DHT22;3638;48.820;9.244;2022-11-15T06:38:56;7.70;99.90
7194;DHT22;3638;48.820;9.244;2022-11-15T06:41:23;7.80;99.90
7194;DHT22;3638;48.820;9.244;2022-11-15T06:43:50;7.70;99.90
7194;DHT22;3638;48.820;9.244;2022-11-15T06:46:17;7.80;99.90
7194;DHT22;3638;48.820;9.244;2022-11-15T06:48:45;7.80;99.90
7194;DHT22;3638;48.820;9.244;2022-11-15T06:51:13;7.80;99.90
7194;DHT22;3638;48.820;9.244;2022-11-15T06:53:40;7.80;99.90
7194;DHT22;3638;48.820;9.244;2022-11-15T06:56:07;7.90;99.90
7194;DHT22;3638;48.820;9.244;2022-11-15T06:58:34;7.90;99.90
7194;DHT22;3638;48.820;9.244;2022-11-15T07:01:04;7.90;99.90
7194;DHT22;3638;48.820;9.244;2022-11-15T07:03:31;8.00;99.90
7194;DHT22;3638;48.820;9.244;2022-11-15T07:06:02;8.00;99.90
7194;DHT22;3638;48.820;9.244;2022-11-15T07:08:29;8.00;99.90
7194;DHT22;3638;48.820;9.244;2022-11-15T07:10:58;8.00;99.90
7194;DHT22;3638;48.820;9.244;2022-11-15T07:13:27;7.90;99.90
7194;DHT22;3638;48.820;9.244;2022-11-15T07:15:59;7.90;99.90
7194;DHT22;3638;48.820;9.244;2022-11-15T07:18:28;8.00;99.90
7194;DHT22;3638;48.820;9.244;2022-11-15T07:20:55;8.00;99.90
7194;DHT22;3638;48.820;9.244;2022-11-15T07:23:23;8.00;99.90
7194;DHT22;3638;48.820;9.244;2022-11-15T07:25:50;8.10;99.90
7194;DHT22;3638;48.820;9.244;2022-11-15T07:28:17;8.10;99.90
7194;DHT22;3638;48.820;9.244;2022-11-15T07:30:44;8.30;99.90
7194;DHT22;3638;48.820;9.244;2022-11-15T07:33:11;8.30;99.90
7194;DHT22;3638;48.820;9.244;2022-11-15T07:35:38;8.40;99.90
7194;DHT22;3638;48.820;9.244;2022-11-15T07:38:04;8.50;99.90
7194;DHT22;3638;48.820;9.244;2022-11-15T07:40:33;8.50;99.90
7194;DHT22;3638;48.820;9.244;2022-11-15T07:43:00;8.70;99.90
7194;DHT22;3638;48.820;9.244;2022-11-15T07:45:27;8.90;99.90
7194;DHT22;3638;48.820;9.244;2022-11-15T07:47:55;9.00;99.90
7194;DHT22;3638;48.820;9.244;2022-11-15T07:50:23;9.20;99.90
7194;DHT22;3638;48.820;9.244;2022-11-15T07:52:53;9.40;99.90
7194;DHT22;3638;48.820;9.244;2022-11-15T07:55:21;9.60;99.90
7194;DHT22;3638;48.820;9.244;2022-11-15T07:57:50;9.80;99.90
7194;DHT22;3638;48.820;9.244;2022-11-15T08:00:18;10.00;99.90
7194;DHT22;3638;48.820;9.244;2022-11-15T08:02:45;10.30;99.90
7194;DHT22;3638;48.820;9.244;2022-11-15T08:05:12;10.40;99.90
7194;DHT22;3638;48.820;9.244;2022-11-15T08:07:39;10.40;99.90
7194;DHT22;3638;48.820;9.244;2022-11-15T08:10:07;10.40;99.90
7194;DHT22;3638;48.820;9.244;2022-11-15T08:12:34;10.40;99.90
7194;DHT22;3638;48.820;9.244;2022-11-15T08:15:03;10.50;99.90
7194;DHT22;3638;48.820;9.244;2022-11-15T08:17:31;10.70;99.90
7194;DHT22;3638;48.820;9.244;2022-11-15T08:19:59;11.00;99.90
7194;DHT22;3638;48.820;9.244;2022-11-15T08:22:26;10.90;99.90
7194;DHT22;3638;48.820;9.244;2022-11-15T08:24:53;11.00;99.90
7194;DHT22;3638;48.820;9.244;2022-11-15T08:27:20;10.90;99.90
7194;DHT22;3638;48.820;9.244;2022-11-15T08:29:48;11.10;99.90
7194;DHT22;3638;48.820;9.244;2022-11-15T08:32:17;11.30;99.90
7194;DHT22;3638;48.820;9.244;2022-11-15T08:34:44;11.20;99.90
7194;DHT22;3638;48.820;9.244;2022-11-15T08:37:11;10.90;99.90
7194;DHT22;3638;48.820;9.244;2022-11-15T08:39:38;10.00;99.90
7194;DHT22;3638;48.820;9.244;2022-11-15T08:42:05;11.00;99.90
7194;DHT22;3638;48.820;9.244;2022-11-15T08:44:31;11.10;99.90
7194;DHT22;3638;48.820;9.244;2022-11-15T08:46:58;11.20;99.90
7194;DHT22;3638;48.820;9.244;2022-11-15T08:49:26;11.40;99.90
7194;DHT22;3638;48.820;9.244;2022-11-15T08:51:53;10.20;99.90
7194;DHT22;3638;48.820;9.244;2022-11-15T08:54:20;11.50;99.90
7194;DHT22;3638;48.820;9.244;2022-11-15T08:56:47;11.50;99.90
7194;DHT22;3638;48.820;9.244;2022-11-15T08:59:14;11.50;99.90
7194;DHT22;3638;48.820;9.244;2022-11-15T09:01:41;11.70;99.90
7194;DHT22;3638;48.820;9.244;2022-11-15T09:04:08;11.70;99.90
7194;DHT22;3638;48.820;9.244;2022-11-15T09:06:36;11.80;99.90
7194;DHT22;3638;48.820;9.244;2022-11-15T09:09:03;12.00;99.90
7194;DHT22;3638;48.820;9.244;2022-11-15T09:11:30;12.20;99.90
7194;DHT22;3638;48.820;9.244;2022-11-15T09:13:57;12.40;99.90
7194;DHT22;3638;48.820;9.244;2022-11-15T09:16:24;12.50;99.90
7194;DHT22;3638;48.820;9.244;2022-11-15T09:18:51;12.60;99.90
7194;DHT22;3638;48.820;9.244;2022-11-15T09:21:19;10.40;99.90
7194;DHT22;3638;48.820;9.244;2022-11-15T09:23:49;12.80;99.90
7194;DHT22;3638;48.820;9.244;2022-11-15T09:26:17;12.20;99.90
7194;DHT22;3638;48.820;9.244;2022-11-15T09:28:44;13.10;99.90
7194;DHT22;3638;48.820;9.244;2022-11-15T09:31:11;13.20;99.90
7194;DHT22;3638;48.820;9.244;2022-11-15T09:33:38;13.30;99.90
7194;DHT22;3638;48.820;9.244;2022-11-15T09:36:07;13.40;99.90
7194;DHT22;3638;48.820;9.244;2022-11-15T09:38:35;13.60;99.90
7194;DHT22;3638;48.820;9.244;2022-11-15T09:41:36;13.70;99.90
7194;DHT22;3638;48.820;9.244;2022-11-15T09:44:26;13.80;99.90
7194;DHT22;3638;48.820;9.244;2022-11-15T09:47:10;13.70;99.90
7194;DHT22;3638;48.820;9.244;2022-11-15T09:49:51;13.90;99.90
7194;DHT22;3638;48.820;9.244;2022-11-15T09:52:19;13.90;99.90
7194;DHT22;3638;48.820;9.244;2022-11-15T09:54:48;14.00;99.90
7194;DHT22;3638;48.820;9.244;2022-11-15T09:57:20;14.00;99.90
7194;DHT22;3638;48.820;9.244;2022-11-15T10:00:00;13.90;99.90
7194;DHT22;3638;48.820;9.244;2022-11-15T10:02:41;13.90;99.90
7194;DHT22;3638;48.820;9.244;2022-11-15T10:05:19;13.90;99.90
7194;DHT22;3638;48.820;9.244;2022-11-15T10:07:57;13.80;99.90
7194;DHT22;3638;48.820;9.244;2022-11-15T10:10:33;13.90;99.90
7194;DHT22;3638;48.820;9.244;2022-11-15T10:13:06;14.00;99.90
7194;DHT22;3638;48.820;9.244;2022-11-15T10:15:42;14.10;99.90
7194;DHT22;3638;48.820;9.244;2022-11-15T10:18:15;14.10;99.90
7194;DHT22;3638;48.820;9.244;2022-11-15T10:20:47;11.20;99.90
7194;DHT22;3638;48.820;9.244;2022-11-15T10:23:18;14.20;99.90
7194;DHT22;3638;48.820;9.244;2022-11-15T10:25:46;14.10;99.90
7194;DHT22;3638;48.820;9.244;2022-11-15T10:28:17;14.20;99.90
7194;DHT22;3638;48.820;9.244;2022-11-15T10:30:49;14.30;99.90
7194;DHT22;3638;48.820;9.244;2022-11-15T10:33:23;14.40;99.90
7194;DHT22;3638;48.820;9.244;2022-11-15T10:36:17;14.20;99.90
7194;DHT22;3638;48.820;9.244;2022-11-15T10:38:54;14.40;99.90
7194;DHT22;3638;48.820;9.244;2022-11-15T10:41:30;14.40;99.90
7194;DHT22;3638;48.820;9.244;2022-11-15T10:44:22;14.30;99.90
7194;DHT22;3638;48.820;9.244;2022-11-15T10:47:27;14.40;99.90
7194;DHT22;3638;48.820;9.244;2022-11-15T10:49:59;14.50;99.90
7194;DHT22;3638;48.820;9.244;2022-11-15T10:52:30;14.60;99.90
7194;DHT22;3638;48.820;9.244;2022-11-15T10:55:02;14.50;99.90
7194;DHT22;3638;48.820;9.244;2022-11-15T10:57:35;14.50;99.90
7194;DHT22;3638;48.820;9.244;2022-11-15T11:00:07;14.40;99.90
7194;DHT22;3638;48.820;9.244;2022-11-15T11:02:58;14.40;99.90
7194;DHT22;3638;48.820;9.244;2022-11-15T11:05:27;14.40;99.90
7194;DHT22;3638;48.820;9.244;2022-11-15T11:07:58;14.50;99.90
7194;DHT22;3638;48.820;9.244;2022-11-15T11:10:27;14.50;99.90
7194;DHT22;3638;48.820;9.244;2022-11-15T11:12:54;14.70;99.90
7194;DHT22;3638;48.820;9.244;2022-11-15T11:15:24;14.70;99.90
7194;DHT22;3638;48.820;9.244;2022-11-15T11:18:03;14.70;99.90
7194;DHT22;3638;48.820;9.244;2022-11-15T11:20:38;14.60;99.90
7194;DHT22;3638;48.820;9.244;2022-11-15T11:23:25;14.60;99.90
7194;DHT22;3638;48.820;9.244;2022-11-15T11:26:12;14.40;99.90
7194;DHT22;3638;48.820;9.244;2022-11-15T11:28:53;14.30;99.90
7194;DHT22;3638;48.820;9.244;2022-11-15T11:31:30;14.20;99.90
7194;DHT22;3638;48.820;9.244;2022-11-15T11:34:13;14.20;99.90
7194;DHT22;3638;48.820;9.244;2022-11-15T11:36:48;14.30;99.90
7194;DHT22;3638;48.820;9.244;2022-11-15T11:39:25;14.30;99.90
7194;DHT22;3638;48.820;9.244;2022-11-15T11:42:00;14.40;99.90
7194;DHT22;3638;48.820;9.244;2022-11-15T11:44:36;14.50;99.90
7194;DHT22;3638;48.820;9.244;2022-11-15T11:47:12;14.70;99.90
7194;DHT22;3638;48.820;9.244;2022-11-15T11:49:48;14.80;99.90
7194;DHT22;3638;48.820;9.244;2022-11-15T11:52:23;14.90;99.90
7194;DHT22;3638;48.820;9.244;2022-11-15T11:55:02;15.00;99.90
7194;DHT22;3638;48.820;9.244;2022-11-15T11:57:43;15.00;99.90
7194;DHT22;3638;48.820;9.244;2022-11-15T12:00:18;15.10;99.90
7194;DHT22;3638;48.820;9.244;2022-11-15T12:02:54;15.20;99.90
7194;DHT22;3638;48.820;9.244;2022-11-15T12:05:34;15.20;99.90
7194;DHT22;3638;48.820;9.244;2022-11-15T12:08:09;15.40;99.90
7194;DHT22;3638;48.820;9.244;2022-11-15T12:10:54;15.30;99.90
7194;DHT22;3638;48.820;9.244;2022-11-15T12:13:27;15.30;99.90
7194;DHT22;3638;48.820;9.244;2022-11-15T12:16:03;15.30;99.90
7194;DHT22;3638;48.820;9.244;2022-11-15T12:18:34;15.10;99.90
7194;DHT22;3638;48.820;9.244;2022-11-15T12:21:05;15.20;99.90
7194;DHT22;3638;48.820;9.244;2022-11-15T12:23:39;15.20;99.90
7194;DHT22;3638;48.820;9.244;2022-11-15T12:26:11;15.20;99.90
7194;DHT22;3638;48.820;9.244;2022-11-15T12:28:47;15.20;99.90
7194;DHT22;3638;48.820;9.244;2022-11-15T12:31:22;15.10;99.90
7194;DHT22;3638;48.820;9.244;2022-11-15T12:33:56;15.10;99.90
7194;DHT22;3638;48.820;9.244;2022-11-15T12:36:44;15.10;99.90
7194;DHT22;3638;48.820;9.244;2022-11-15T12:39:12;15.00;99.90
7194;DHT22;3638;48.820;9.244;2022-11-15T12:41:40;15.00;99.90
7194;DHT22;3638;48.820;9.244;2022-11-15T12:44:11;15.10;99.90
7194;DHT22;3638;48.820;9.244;2022-11-15T12:46:59;15.10;99.90
7194;DHT22;3638;48.820;9.244;2022-11-15T12:49:49;15.20;99.90
7194;DHT22;3638;48.820;9.244;2022-11-15T12:52:17;15.20;99.90
7194;DHT22;3638;48.820;9.244;2022-11-15T12:55:02;15.10;99.90
7194;DHT22;3638;48.820;9.244;2022-11-15T12:58:27;15.10;99.90
7194;DHT22;3638;48.820;9.244;2022-11-15T13:00:54;15.10;99.90
7194;DHT22;3638;48.820;9.244;2022-11-15T13:03:26;15.00;99.90
7194;DHT22;3638;48.820;9.244;2022-11-15T13:06:36;15.00;99.90
7194;DHT22;3638;48.820;9.244;2022-11-15T13:12:49;15.00;99.90
7194;DHT22;3638;48.820;9.244;2022-11-15T13:15:45;14.90;99.90
7194;DHT22;3638;48.820;9.244;2022-11-15T13:18:31;14.90;99.90
7194;DHT22;3638;48.820;9.244;2022-11-15T13:21:01;14.90;99.90
7194;DHT22;3638;48.820;9.244;2022-11-15T13:23:54;14.90;99.90
7194;DHT22;3638;48.820;9.244;2022-11-15T13:26:22;14.80;99.90
7194;DHT22;3638;48.820;9.244;2022-11-15T13:28:51;14.70;99.90
7194;DHT22;3638;48.820;9.244;2022-11-15T13:31:35;14.80;99.90
7194;DHT22;3638;48.820;9.244;2022-11-15T13:34:16;14.70;99.90
7194;DHT22;3638;48.820;9.244;2022-11-15T13:36:50;14.80;99.90
7194;DHT22;3638;48.820;9.244;2022-11-15T13:39:27;14.70;99.90
7194;DHT22;3638;48.820;9.244;2022-11-15T13:41:55;14.60;99.90
7194;DHT22;3638;48.820;9.244;2022-11-15T13:44:25;14.60;99.90
7194;DHT22;3638;48.820;9.244;2022-11-15T13:47:04;14.70;99.90
7194;DHT22;3638;48.820;9.244;2022-11-15T13:49:33;14.60;99.90
7194;DHT22;3638;48.820;9.244;2022-11-15T13:52:02;14.50;99.90
7194;DHT22;3638;48.820;9.244;2022-11-15T13:54:34;14.50;99.90
7194;DHT22;3638;48.820;9.244;2022-11-15T13:57:05;14.50;99.90
7194;DHT22;3638;48.820;9.244;2022-11-15T13:59:37;14.50;99.90
7194;DHT22;3638;48.820;9.244;2022-11-15T14:02:13;14.50;99.90
7194;DHT22;3638;48.820;9.244;2022-11-15T14:04:46;14.50;99.90
7194;DHT22;3638;48.820;9.244;2022-11-15T14:07:17;14.50;99.90
7194;DHT22;3638;48.820;9.244;2022-11-15T14:09:48;14.40;99.90
7194;DHT22;3638;48.820;9.244;2022-11-15T14:12:27;14.30;99.90
7194;DHT22;3638;48.820;9.244;2022-11-15T14:14:56;14.30;99.90
7194;DHT22;3638;48.820;9.244;2022-11-15T14:17:37;14.10;99.90
7194;DHT22;3638;48.820;9.244;2022-11-15T14:20:30;14.00;99.90
7194;DHT22;3638;48.820;9.244;2022-11-15T14:22:59;14.00;99.90
7194;DHT22;3638;48.820;9.244;2022-11-15T14:25:29;14.00;99.90
7194;DHT22;3638;48.820;9.244;2022-11-15T14:28:28;13.90;99.90
7194;DHT22;3638;48.820;9.244;2022-11-15T14:30:58;13.80;99.90
7194;DHT22;3638;48.820;9.244;2022-11-15T14:33:28;13.90;99.90
7194;DHT22;3638;48.820;9.244;2022-11-15T14:35:58;13.80;99.90
7194;DHT22;3638;48.820;9.244;2022-11-15T14:38:30;13.70;99.90
7194;DHT22;3638;48.820;9.244;2022-11-15T14:40:59;13.50;99.90
7194;DHT22;3638;48.820;9.244;2022-11-15T14:43:26;13.50;99.90
7194;DHT22;3638;48.820;9.244;2022-11-15T14:45:53;13.50;99.90
7194;DHT22;3638;48.820;9.244;2022-11-15T14:48:21;13.50;99.90
7194;DHT22;3638;48.820;9.244;2022-11-15T14:50:48;13.40;99.90
7194;DHT22;3638;48.820;9.244;2022-11-15T14:53:16;13.40;99.90
7194;DHT22;3638;48.820;9.244;2022-11-15T14:55:45;13.40;99.90
7194;DHT22;3638;48.820;9.244;2022-11-15T14:58:13;13.40;99.90
7194;DHT22;3638;48.820;9.244;2022-11-15T15:00:41;13.40;99.90
7194;DHT22;3638;48.820;9.244;2022-11-15T15:03:08;13.40;99.90
7194;DHT22;3638;48.820;9.244;2022-11-15T15:05:37;13.40;99.90
7194;DHT22;3638;48.820;9.244;2022-11-15T15:08:06;13.40;99.90
7194;DHT22;3638;48.820;9.244;2022-11-15T15:10:35;13.30;99.90
7194;DHT22;3638;48.820;9.244;2022-11-15T15:13:03;13.30;99.90
7194;DHT22;3638;48.820;9.244;2022-11-15T15:15:34;13.30;99.90
7194;DHT22;3638;48.820;9.244;2022-11-15T15:18:03;13.20;99.90
7194;DHT22;3638;48.820;9.244;2022-11-15T15:20:30;13.20;99.90
7194;DHT22;3638;48.820;9.244;2022-11-15T15:22:58;13.10;99.90
7194;DHT22;3638;48.820;9.244;2022-11-15T15:25:27;13.10;99.90
7194;DHT22;3638;48.820;9.244;2022-11-15T15:27:55;13.00;99.90
7194;DHT22;3638;48.820;9.244;2022-11-15T15:30:23;13.00;99.90
7194;DHT22;3638;48.820;9.244;2022-11-15T15:32:51;12.90;99.90
7194;DHT22;3638;48.820;9.244;2022-11-15T15:35:19;12.90;99.90
7194;DHT22;3638;48.820;9.244;2022-11-15T15:37:48;12.70;99.90
7194;DHT22;3638;48.820;9.244;2022-11-15T15:40:16;12.70;99.90
7194;DHT22;3638;48.820;9.244;2022-11-15T15:42:45;12.70;99.90
7194;DHT22;3638;48.820;9.244;2022-11-15T15:45:13;12.70;99.90
7194;DHT22;3638;48.820;9.244;2022-11-15T15:47:41;12.60;99.90
7194;DHT22;3638;48.820;9.244;2022-11-15T15:50:18;12.60;99.90
7194;DHT22;3638;48.820;9.244;2022-11-15T15:52:47;12.50;99.90
7194;DHT22;3638;48.820;9.244;2022-11-15T15:55:15;12.50;99.90
7194;DHT22;3638;48.820;9.244;2022-11-15T15:57:41;12.50;99.90
7194;DHT22;3638;48.820;9.244;2022-11-15T16:00:10;12.50;99.90
7194;DHT22;3638;48.820;9.244;2022-11-15T16:02:37;12.50;99.90
7194;DHT22;3638;48.820;9.244;2022-11-15T16:05:05;12.50;99.90
7194;DHT22;3638;48.820;9.244;2022-11-15T16:07:34;12.50;99.90
7194;DHT22;3638;48.820;9.244;2022-11-15T16:10:02;12.50;99.90
7194;DHT22;3638;48.820;9.244;2022-11-15T16:12:30;12.40;99.90
7194;DHT22;3638;48.820;9.244;2022-11-15T16:14:59;12.30;99.90
7194;DHT22;3638;48.820;9.244;2022-11-15T16:17:34;12.30;99.90
7194;DHT22;3638;48.820;9.244;2022-11-15T16:20:04;12.30;99.90
7194;DHT22;3638;48.820;9.244;2022-11-15T16:22:33;12.30;99.90
7194;DHT22;3638;48.820;9.244;2022-11-15T16:25:00;12.30;99.90
7194;DHT22;3638;48.820;9.244;2022-11-15T16:27:27;12.30;99.90
7194;DHT22;3638;48.820;9.244;2022-11-15T16:29:54;12.30;99.90
7194;DHT22;3638;48.820;9.244;2022-11-15T16:32:20;12.30;99.90
7194;DHT22;3638;48.820;9.244;2022-11-15T16:34:48;12.30;99.90
7194;DHT22;3638;48.820;9.244;2022-11-15T16:37:22;12.40;99.90
7194;DHT22;3638;48.820;9.244;2022-11-15T16:39:50;12.40;99.90
7194;DHT22;3638;48.820;9.244;2022-11-15T16:42:17;12.50;99.90
7194;DHT22;3638;48.820;9.244;2022-11-15T16:44:44;12.40;99.90